sensor_id;sensor_type;location;lat;lon;timestamp;pressure;altitude;pressure_sealevel;temperature;humidity
6038;BME280;3047;42.600;23.470;2023-02-12T00:01:20;93959.19;;;0.13;61.07
6038;BME280;3047;42.600;23.470;2023-02-12T00:03:48;93951.97;;;0.24;61.19
6038;BME280;3047;42.600;23.470;2023-02-12T00:06:15;93954.44;;;0.24;62.04
6038;BME280;3047;42.600;23.470;2023-02-12T00:08:41;93952.34;;;0.39;60.43
6038;BME280;3047;42.600;23.470;2023-02-12T00:11:12;93939.72;;;0.30;60.94
6038;BME280;3047;42.600;23.470;2023-02-12T00:13:40;93950.38;;;0.26;61.61
6038;BME280;3047;42.600;23.470;2023-02-12T00:16:09;93954.63;;;0.32;61.99
6038;BME280;3047;42.600;23.470;2023-02-12T00:18:36;93965.41;;;0.32;62.58
6038;BME280;3047;42.600;23.470;2023-02-12T00:21:03;93948.59;;;0.20;62.51
6038;BME280;3047;42.600;23.470;2023-02-12T00:23:33;93924.22;;;0.06;62.81
6038;BME280;3047;42.600;23.470;2023-02-12T00:26:04;93958.03;;;0.34;62.07
6038;BME280;3047;42.600;23.470;2023-02-12T00:28:32;93960.53;;;0.35;63.12
6038;BME280;3047;42.600;23.470;2023-02-12T00:31:05;93925.44;;;0.21;63.21
6038;BME280;3047;42.600;23.470;2023-02-12T00:33:32;93954.91;;;0.42;63.23
6038;BME280;3047;42.600;23.470;2023-02-12T00:35:59;93948.00;;;0.31;63.73
6038;BME280;3047;42.600;23.470;2023-02-12T00:38:26;93948.00;;;0.31;63.15
6038;BME280;3047;42.600;23.470;2023-02-12T00:40:53;93942.16;;;0.29;62.40
6038;BME280;3047;42.600;23.470;2023-02-12T00:43:20;93916.06;;;0.11;62.91
6038;BME280;3047;42.600;23.470;2023-02-12T00:45:48;93935.47;;;0.26;63.50
6038;BME280;3047;42.600;23.470;2023-02-12T00:48:15;93921.28;;;0.22;63.53
6038;BME280;3047;42.600;23.470;2023-02-12T00:50:44;93916.91;;;0.12;62.83
6038;BME280;3047;42.600;23.470;2023-02-12T00:53:11;93924.41;;;0.13;62.29
6038;BME280;3047;42.600;23.470;2023-02-12T00:55:38;93926.81;;;0.10;63.19
6038;BME280;3047;42.600;23.470;2023-02-12T00:58:05;93842.63;;;-0.48;63.79
6038;BME280;3047;42.600;23.470;2023-02-12T01:00:33;93922.34;;;-0.03;64.11
6038;BME280;3047;42.600;23.470;2023-02-12T01:03:02;93892.16;;;-0.18;64.32
6038;BME280;3047;42.600;23.470;2023-02-12T01:05:30;93860.84;;;-0.46;64.25
6038;BME280;3047;42.600;23.470;2023-02-12T01:07:57;93901.81;;;-0.29;65.47
6038;BME280;3047;42.600;23.470;2023-02-12T01:10:23;93899.22;;;-0.34;66.41
6038;BME280;3047;42.600;23.470;2023-02-12T01:12:50;93895.16;;;-0.32;65.53
6038;BME280;3047;42.600;23.470;2023-02-12T01:15:17;93898.47;;;-0.31;66.69
6038;BME280;3047;42.600;23.470;2023-02-12T01:17:45;93913.59;;;-0.22;66.42
6038;BME280;3047;42.600;23.470;2023-02-12T01:20:15;93912.31;;;-0.39;65.37
6038;BME280;3047;42.600;23.470;2023-02-12T01:22:43;93878.81;;;-0.57;66.39
6038;BME280;3047;42.600;23.470;2023-02-12T01:25:10;93915.03;;;-0.30;66.88
6038;BME280;3047;42.600;23.470;2023-02-12T01:27:36;93911.59;;;-0.35;67.67
6038;BME280;3047;42.600;23.470;2023-02-12T01:30:04;93886.91;;;-0.62;68.38
6038;BME280;3047;42.600;23.470;2023-02-12T01:32:33;93920.38;;;-0.48;67.66
6038;BME280;3047;42.600;23.470;2023-02-12T01:34:59;93913.44;;;-0.60;67.66
6038;BME280;3047;42.600;23.470;2023-02-12T01:37:28;93917.59;;;-0.59;69.40
6038;BME280;3047;42.600;23.470;2023-02-12T01:39:54;93910.78;;;-0.66;69.77
6038;BME280;3047;42.600;23.470;2023-02-12T01:42:21;93902.06;;;-0.83;69.92
6038;BME280;3047;42.600;23.470;2023-02-12T01:47:48;93887.59;;;-0.68;70.44
6038;BME280;3047;42.600;23.470;2023-02-12T01:50:17;93891.56;;;-0.73;70.41
6038;BME280;3047;42.600;23.470;2023-02-12T01:52:48;93878.69;;;-0.91;70.94
6038;BME280;3047;42.600;23.470;2023-02-12T01:55:17;93866.09;;;-0.97;70.74
6038;BME280;3047;42.600;23.470;2023-02-12T01:57:46;93876.47;;;-1.12;72.29
6038;BME280;3047;42.600;23.470;2023-02-12T02:00:16;93876.38;;;-1.15;72.31
6038;BME280;3047;42.600;23.470;2023-02-12T02:02:47;93870.94;;;-1.02;71.71
6038;BME280;3047;42.600;23.470;2023-02-12T02:05:19;93872.13;;;-1.19;72.77
6038;BME280;3047;42.600;23.470;2023-02-12T02:07:50;93863.50;;;-1.32;72.44
6038;BME280;3047;42.600;23.470;2023-02-12T02:10:18;93868.22;;;-1.11;72.12
6038;BME280;3047;42.600;23.470;2023-02-12T02:12:44;93867.47;;;-1.09;72.55
6038;BME280;3047;42.600;23.470;2023-02-12T02:15:30;93855.84;;;-1.10;72.73
6038;BME280;3047;42.600;23.470;2023-02-12T02:17:59;93875.78;;;-1.07;72.79
6038;BME280;3047;42.600;23.470;2023-02-12T02:24:09;93882.34;;;-1.09;72.62
6038;BME280;3047;42.600;23.470;2023-02-12T02:26:58;93892.53;;;-1.00;72.72
6038;BME280;3047;42.600;23.470;2023-02-12T02:32:29;93860.13;;;-1.34;73.76
6038;BME280;3047;42.600;23.470;2023-02-12T02:35:02;93866.63;;;-1.38;73.52
6038;BME280;3047;42.600;23.470;2023-02-12T02:37:38;93843.13;;;-1.22;71.94
6038;BME280;3047;42.600;23.470;2023-02-12T02:40:09;93848.41;;;-1.10;71.00
6038;BME280;3047;42.600;23.470;2023-02-12T02:42:40;93835.91;;;-1.14;71.20
6038;BME280;3047;42.600;23.470;2023-02-12T02:45:12;93867.25;;;-0.86;70.59
6038;BME280;3047;42.600;23.470;2023-02-12T02:47:48;93847.97;;;-0.96;70.76
6038;BME280;3047;42.600;23.470;2023-02-12T02:50:19;93883.38;;;-0.70;70.78
6038;BME280;3047;42.600;23.470;2023-02-12T02:52:49;93888.53;;;-0.64;71.23
6038;BME280;3047;42.600;23.470;2023-02-12T02:55:19;93901.97;;;-0.56;70.40
6038;BME280;3047;42.600;23.470;2023-02-12T02:57:51;93898.75;;;-0.52;70.69
6038;BME280;3047;42.600;23.470;2023-02-12T03:00:22;93899.03;;;-0.41;72.14
6038;BME280;3047;42.600;23.470;2023-02-12T03:02:55;93892.56;;;-0.36;73.38
6038;BME280;3047;42.600;23.470;2023-02-12T03:05:28;93891.09;;;-0.28;71.78
6038;BME280;3047;42.600;23.470;2023-02-12T03:07:58;93891.97;;;-0.26;72.23
6038;BME280;3047;42.600;23.470;2023-02-12T03:10:29;93880.41;;;-0.26;72.66
6038;BME280;3047;42.600;23.470;2023-02-12T03:13:01;93876.31;;;-0.23;73.47
6038;BME280;3047;42.600;23.470;2023-02-12T03:15:34;93855.31;;;-0.36;72.39
6038;BME280;3047;42.600;23.470;2023-02-12T03:18:08;93863.94;;;-0.22;72.17
6038;BME280;3047;42.600;23.470;2023-02-12T03:20:41;93881.00;;;-0.01;70.46
6038;BME280;3047;42.600;23.470;2023-02-12T03:23:12;93880.13;;;-0.03;71.77
6038;BME280;3047;42.600;23.470;2023-02-12T03:25:47;93851.97;;;-0.37;72.36
6038;BME280;3047;42.600;23.470;2023-02-12T03:28:20;93880.78;;;-0.10;71.94
6038;BME280;3047;42.600;23.470;2023-02-12T03:30:52;93881.06;;;0.02;71.51
6038;BME280;3047;42.600;23.470;2023-02-12T03:33:28;93871.31;;;0.10;71.70
6038;BME280;3047;42.600;23.470;2023-02-12T03:36:05;93849.44;;;-0.05;74.09
6038;BME280;3047;42.600;23.470;2023-02-12T03:38:36;93823.75;;;-0.07;73.53
6038;BME280;3047;42.600;23.470;2023-02-12T03:41:05;93840.63;;;0.08;73.27
6038;BME280;3047;42.600;23.470;2023-02-12T03:43:43;93850.97;;;0.24;72.91
6038;BME280;3047;42.600;23.470;2023-02-12T03:46:19;93827.56;;;0.15;74.00
6038;BME280;3047;42.600;23.470;2023-02-12T03:48:57;93849.34;;;0.27;74.34
6038;BME280;3047;42.600;23.470;2023-02-12T03:51:28;93858.66;;;0.35;75.55
6038;BME280;3047;42.600;23.470;2023-02-12T03:53:56;93857.81;;;0.35;74.75
6038;BME280;3047;42.600;23.470;2023-02-12T03:56:27;93837.66;;;0.21;74.00
6038;BME280;3047;42.600;23.470;2023-02-12T03:58:55;93863.50;;;0.29;75.11
6038;BME280;3047;42.600;23.470;2023-02-12T04:01:23;93852.78;;;0.32;75.41
6038;BME280;3047;42.600;23.470;2023-02-12T04:03:51;93852.84;;;0.35;75.73
6038;BME280;3047;42.600;23.470;2023-02-12T04:06:20;93865.44;;;0.42;73.30
6038;BME280;3047;42.600;23.470;2023-02-12T04:08:47;93861.41;;;0.47;72.71
6038;BME280;3047;42.600;23.470;2023-02-12T04:11:21;93865.56;;;0.48;73.78
6038;BME280;3047;42.600;23.470;2023-02-12T04:14:04;93838.00;;;0.38;74.79
6038;BME280;3047;42.600;23.470;2023-02-12T04:16:39;93863.06;;;0.48;74.53
6038;BME280;3047;42.600;23.470;2023-02-12T04:19:12;93861.97;;;0.36;77.52
6038;BME280;3047;42.600;23.470;2023-02-12T04:21:50;93873.72;;;0.41;78.62
6038;BME280;3047;42.600;23.470;2023-02-12T04:24:27;93849.53;;;0.34;77.53
6038;BME280;3047;42.600;23.470;2023-02-12T04:27:00;93879.97;;;0.26;77.31
6038;BME280;3047;42.600;23.470;2023-02-12T04:29:32;93848.03;;;0.05;78.38
6038;BME280;3047;42.600;23.470;2023-02-12T04:32:05;93878.53;;;0.35;77.15
6038;BME280;3047;42.600;23.470;2023-02-12T04:34:38;93877.94;;;0.45;76.71
6038;BME280;3047;42.600;23.470;2023-02-12T04:37:13;93875.41;;;0.44;78.40
6038;BME280;3047;42.600;23.470;2023-02-12T04:39:41;93888.06;;;0.53;77.90
6038;BME280;3047;42.600;23.470;2023-02-12T04:42:08;93894.59;;;0.49;77.93
6038;BME280;3047;42.600;23.470;2023-02-12T04:44:38;93884.59;;;0.46;80.43
6038;BME280;3047;42.600;23.470;2023-02-12T04:47:04;93869.84;;;0.18;80.75
6038;BME280;3047;42.600;23.470;2023-02-12T04:49:31;93890.09;;;0.33;78.30
6038;BME280;3047;42.600;23.470;2023-02-12T04:51:59;93880.81;;;0.26;76.41
6038;BME280;3047;42.600;23.470;2023-02-12T04:54:26;93900.25;;;0.44;77.16
6038;BME280;3047;42.600;23.470;2023-02-12T04:56:53;93900.31;;;0.45;74.71
6038;BME280;3047;42.600;23.470;2023-02-12T04:59:20;93818.06;;;-0.03;76.39
6038;BME280;3047;42.600;23.470;2023-02-12T05:01:47;93890.59;;;0.56;79.69
6038;BME280;3047;42.600;23.470;2023-02-12T05:04:15;93883.19;;;0.59;75.94
6038;BME280;3047;42.600;23.470;2023-02-12T05:06:43;93849.44;;;0.30;77.42
6038;BME280;3047;42.600;23.470;2023-02-12T05:09:14;93887.81;;;0.44;74.57
6038;BME280;3047;42.600;23.470;2023-02-12T05:11:42;93886.91;;;0.40;74.85
6038;BME280;3047;42.600;23.470;2023-02-12T05:14:09;93853.47;;;0.24;75.50
6038;BME280;3047;42.600;23.470;2023-02-12T05:16:35;93889.56;;;0.48;76.08
6038;BME280;3047;42.600;23.470;2023-02-12T05:19:03;93865.16;;;0.29;72.98
6038;BME280;3047;42.600;23.470;2023-02-12T05:21:30;93824.88;;;0.07;73.24
6038;BME280;3047;42.600;23.470;2023-02-12T05:23:56;93898.84;;;0.55;73.15
6038;BME280;3047;42.600;23.470;2023-02-12T05:26:25;93895.72;;;0.62;74.73
6038;BME280;3047;42.600;23.470;2023-02-12T05:28:51;93899.94;;;0.66;73.70
6038;BME280;3047;42.600;23.470;2023-02-12T05:31:19;93907.50;;;0.71;75.32
6038;BME280;3047;42.600;23.470;2023-02-12T05:33:47;93906.66;;;0.70;76.02
6038;BME280;3047;42.600;23.470;2023-02-12T05:36:16;93921.75;;;0.78;73.49
6038;BME280;3047;42.600;23.470;2023-02-12T05:38:43;93923.31;;;0.73;74.13
6038;BME280;3047;42.600;23.470;2023-02-12T05:41:11;93935.56;;;0.65;73.44
6038;BME280;3047;42.600;23.470;2023-02-12T05:43:40;93935.00;;;0.77;73.35
6038;BME280;3047;42.600;23.470;2023-02-12T05:46:07;93890.03;;;0.32;76.12
6038;BME280;3047;42.600;23.470;2023-02-12T05:48:35;93871.31;;;0.08;78.50
6038;BME280;3047;42.600;23.470;2023-02-12T05:51:03;93752.84;;;-0.67;80.29
6038;BME280;3047;42.600;23.470;2023-02-12T05:53:30;93922.22;;;0.27;81.37
6038;BME280;3047;42.600;23.470;2023-02-12T05:56:07;93945.63;;;0.35;83.05
6038;BME280;3047;42.600;23.470;2023-02-12T05:58:33;93945.91;;;0.47;82.09
6038;BME280;3047;42.600;23.470;2023-02-12T06:01:02;93946.75;;;0.48;82.49
6038;BME280;3047;42.600;23.470;2023-02-12T06:03:29;93946.81;;;0.51;81.69
6038;BME280;3047;42.600;23.470;2023-02-12T06:05:55;93950.31;;;0.59;81.16
6038;BME280;3047;42.600;23.470;2023-02-12T06:08:22;93952.00;;;0.60;81.05
6038;BME280;3047;42.600;23.470;2023-02-12T06:10:49;93952.34;;;0.76;80.07
6038;BME280;3047;42.600;23.470;2023-02-12T06:13:15;93964.69;;;0.71;80.81
6038;BME280;3047;42.600;23.470;2023-02-12T06:15:42;93953.88;;;0.69;81.42
6038;BME280;3047;42.600;23.470;2023-02-12T06:18:10;93955.47;;;0.67;82.63
6038;BME280;3047;42.600;23.470;2023-02-12T06:20:37;93960.47;;;0.68;82.83
6038;BME280;3047;42.600;23.470;2023-02-12T06:23:04;93968.06;;;0.74;82.72
6038;BME280;3047;42.600;23.470;2023-02-12T06:25:31;93963.84;;;0.70;83.37
6038;BME280;3047;42.600;23.470;2023-02-12T06:27:58;93965.31;;;0.62;84.67
6038;BME280;3047;42.600;23.470;2023-02-12T06:30:24;93954.06;;;0.78;84.18
6038;BME280;3047;42.600;23.470;2023-02-12T06:32:51;93952.06;;;0.63;85.51
6038;BME280;3047;42.600;23.470;2023-02-12T06:35:19;93955.47;;;0.67;85.50
6038;BME280;3047;42.600;23.470;2023-02-12T06:37:46;93969.56;;;0.68;87.13
6038;BME280;3047;42.600;23.470;2023-02-12T06:40:13;93961.00;;;0.55;88.34
6038;BME280;3047;42.600;23.470;2023-02-12T06:42:40;93961.88;;;0.57;88.97
6038;BME280;3047;42.600;23.470;2023-02-12T06:45:07;93931.66;;;0.40;89.53
6038;BME280;3047;42.600;23.470;2023-02-12T06:47:34;93932.47;;;0.39;90.47
6038;BME280;3047;42.600;23.470;2023-02-12T06:50:01;93936.50;;;0.34;90.79
6038;BME280;3047;42.600;23.470;2023-02-12T06:52:29;93945.78;;;0.41;91.60
6038;BME280;3047;42.600;23.470;2023-02-12T06:54:55;93959.22;;;0.49;92.15
6038;BME280;3047;42.600;23.470;2023-02-12T06:57:22;93964.38;;;0.57;91.44
6038;BME280;3047;42.600;23.470;2023-02-12T06:59:49;93974.56;;;0.68;91.71
6038;BME280;3047;42.600;23.470;2023-02-12T07:02:17;93982.84;;;0.68;92.94
6038;BME280;3047;42.600;23.470;2023-02-12T07:04:43;93977.88;;;0.68;92.94
6038;BME280;3047;42.600;23.470;2023-02-12T07:07:10;93982.09;;;0.72;93.80
6038;BME280;3047;42.600;23.470;2023-02-12T07:09:38;93945.09;;;0.48;94.58
6038;BME280;3047;42.600;23.470;2023-02-12T07:12:05;93968.66;;;0.64;94.89
6038;BME280;3047;42.600;23.470;2023-02-12T07:14:32;93961.16;;;0.61;94.85
6038;BME280;3047;42.600;23.470;2023-02-12T07:16:59;93966.31;;;0.70;94.45
6038;BME280;3047;42.600;23.470;2023-02-12T07:19:28;93960.53;;;0.70;94.06
6038;BME280;3047;42.600;23.470;2023-02-12T07:21:55;93978.88;;;0.77;94.32
6038;BME280;3047;42.600;23.470;2023-02-12T07:24:22;93973.03;;;0.73;93.76
6038;BME280;3047;42.600;23.470;2023-02-12T07:26:50;93914.88;;;0.32;94.94
6038;BME280;3047;42.600;23.470;2023-02-12T07:29:16;93962.72;;;0.58;95.20
6038;BME280;3047;42.600;23.470;2023-02-12T07:31:43;93977.81;;;0.65;94.67
6038;BME280;3047;42.600;23.470;2023-02-12T07:34:10;93986.19;;;0.69;94.89
6038;BME280;3047;42.600;23.470;2023-02-12T07:36:37;93987.88;;;0.70;95.44
6038;BME280;3047;42.600;23.470;2023-02-12T07:39:04;93977.78;;;0.64;94.46
6038;BME280;3047;42.600;23.470;2023-02-12T07:41:32;93961.88;;;0.57;95.33
6038;BME280;3047;42.600;23.470;2023-02-12T07:44:03;93955.13;;;0.52;95.58
6038;BME280;3047;42.600;23.470;2023-02-12T07:46:33;93937.59;;;0.45;96.64
6038;BME280;3047;42.600;23.470;2023-02-12T07:49:02;93942.75;;;0.55;95.97
6038;BME280;3047;42.600;23.470;2023-02-12T07:51:30;93965.66;;;0.78;94.74
6038;BME280;3047;42.600;23.470;2023-02-12T07:53:58;93989.09;;;0.89;95.37
6038;BME280;3047;42.600;23.470;2023-02-12T07:56:27;93994.94;;;0.89;94.86
6038;BME280;3047;42.600;23.470;2023-02-12T07:58:55;93988.69;;;0.69;96.61
6038;BME280;3047;42.600;23.470;2023-02-12T08:01:25;94008.91;;;0.84;95.64
6038;BME280;3047;42.600;23.470;2023-02-12T08:03:53;93973.59;;;0.63;95.32
6038;BME280;3047;42.600;23.470;2023-02-12T08:06:22;94010.31;;;0.73;97.34
6038;BME280;3047;42.600;23.470;2023-02-12T08:08:50;93955.09;;;0.50;97.13
6038;BME280;3047;42.600;23.470;2023-02-12T08:11:17;94014.13;;;0.93;97.50
6038;BME280;3047;42.600;23.470;2023-02-12T08:13:44;94011.50;;;0.89;97.12
6038;BME280;3047;42.600;23.470;2023-02-12T08:16:12;93989.44;;;0.66;97.19
6038;BME280;3047;42.600;23.470;2023-02-12T08:18:41;94009.63;;;0.79;97.55
6038;BME280;3047;42.600;23.470;2023-02-12T08:21:09;94001.94;;;0.69;98.30
6038;BME280;3047;42.600;23.470;2023-02-12T08:23:37;93997.72;;;0.65;98.97
6038;BME280;3047;42.600;23.470;2023-02-12T08:26:09;93978.50;;;0.60;98.53
6038;BME280;3047;42.600;23.470;2023-02-12T08:28:38;93995.41;;;0.73;98.42
6038;BME280;3047;42.600;23.470;2023-02-12T08:31:06;94003.75;;;0.77;98.04
6038;BME280;3047;42.600;23.470;2023-02-12T08:33:34;94023.16;;;0.90;98.19
6038;BME280;3047;42.600;23.470;2023-02-12T08:36:03;94022.44;;;0.97;97.62
6038;BME280;3047;42.600;23.470;2023-02-12T08:38:31;93943.50;;;0.51;96.50
6038;BME280;3047;42.600;23.470;2023-02-12T08:41:02;93965.41;;;0.67;96.43
6038;BME280;3047;42.600;23.470;2023-02-12T08:43:29;94030.72;;;0.96;96.80
6038;BME280;3047;42.600;23.470;2023-02-12T08:46:01;94021.53;;;0.92;96.42
6038;BME280;3047;42.600;23.470;2023-02-12T08:48:28;94029.16;;;0.99;96.81
6038;BME280;3047;42.600;23.470;2023-02-12T08:50:55;93986.13;;;0.66;96.30
6038;BME280;3047;42.600;23.470;2023-02-12T08:53:23;94038.38;;;1.04;96.23
6038;BME280;3047;42.600;23.470;2023-02-12T08:55:50;94037.34;;;0.94;96.58
6038;BME280;3047;42.600;23.470;2023-02-12T08:58:17;94007.75;;;0.70;98.13
6038;BME280;3047;42.600;23.470;2023-02-12T09:00:44;94043.22;;;0.97;97.82
6038;BME280;3047;42.600;23.470;2023-02-12T09:03:10;94045.72;;;0.99;97.14
6038;BME280;3047;42.600;23.470;2023-02-12T09:05:38;94036.72;;;1.04;98.46
6038;BME280;3047;42.600;23.470;2023-02-12T09:08:05;94048.56;;;1.14;96.79
6038;BME280;3047;42.600;23.470;2023-02-12T09:10:33;94045.91;;;1.07;98.13
6038;BME280;3047;42.600;23.470;2023-02-12T09:13:00;94020.94;;;1.02;98.49
6038;BME280;3047;42.600;23.470;2023-02-12T09:15:30;94025.94;;;1.04;97.52
6038;BME280;3047;42.600;23.470;2023-02-12T09:17:57;94039.47;;;1.16;97.11
6038;BME280;3047;42.600;23.470;2023-02-12T09:20:28;94010.94;;;1.01;97.73
6038;BME280;3047;42.600;23.470;2023-02-12T09:22:55;94008.44;;;1.01;96.85
6038;BME280;3047;42.600;23.470;2023-02-12T09:25:22;94039.91;;;1.36;97.02
6038;BME280;3047;42.600;23.470;2023-02-12T09:27:50;94050.75;;;1.38;96.07
6038;BME280;3047;42.600;23.470;2023-02-12T09:30:17;94055.56;;;1.31;97.30
6038;BME280;3047;42.600;23.470;2023-02-12T09:32:44;93978.00;;;0.73;97.80
6038;BME280;3047;42.600;23.470;2023-02-12T09:35:10;94063.56;;;1.17;98.56
6038;BME280;3047;42.600;23.470;2023-02-12T09:37:38;94044.16;;;1.03;98.87
6038;BME280;3047;42.600;23.470;2023-02-12T09:40:07;94063.56;;;1.17;99.18
6038;BME280;3047;42.600;23.470;2023-02-12T09:42:53;94049.25;;;1.09;99.92
6038;BME280;3047;42.600;23.470;2023-02-12T09:45:26;94061.19;;;1.22;100.00
6038;BME280;3047;42.600;23.470;2023-02-12T09:48:03;94065.53;;;1.31;99.63
6038;BME280;3047;42.600;23.470;2023-02-12T09:50:42;94055.03;;;1.45;100.00
6038;BME280;3047;42.600;23.470;2023-02-12T09:53:13;94051.06;;;1.54;99.33
6038;BME280;3047;42.600;23.470;2023-02-12T09:55:40;94029.41;;;1.49;98.60
6038;BME280;3047;42.600;23.470;2023-02-12T09:58:13;94059.69;;;1.69;98.77
6038;BME280;3047;42.600;23.470;2023-02-12T10:00:41;94063.81;;;1.67;98.05
6038;BME280;3047;42.600;23.470;2023-02-12T10:03:12;94060.44;;;1.64;98.51
6038;BME280;3047;42.600;23.470;2023-02-12T10:05:44;94045.97;;;1.47;97.91
6038;BME280;3047;42.600;23.470;2023-02-12T10:11:32;94060.81;;;1.43;99.37
6038;BME280;3047;42.600;23.470;2023-02-12T10:14:13;94049.38;;;1.51;99.85
6038;BME280;3047;42.600;23.470;2023-02-12T10:16:50;94057.75;;;1.55;98.97
6038;BME280;3047;42.600;23.470;2023-02-12T10:19:30;94063.97;;;1.75;99.24
6038;BME280;3047;42.600;23.470;2023-02-12T10:22:05;93962.50;;;1.24;97.73
6038;BME280;3047;42.600;23.470;2023-02-12T10:24:48;94064.13;;;1.83;97.75
6038;BME280;3047;42.600;23.470;2023-02-12T10:27:29;94044.16;;;1.80;97.30
6038;BME280;3047;42.600;23.470;2023-02-12T10:30:03;94035.69;;;1.73;97.49
6038;BME280;3047;42.600;23.470;2023-02-12T10:32:34;94076.63;;;1.86;97.60
6038;BME280;3047;42.600;23.470;2023-02-12T10:35:12;94077.78;;;2.00;97.55
6038;BME280;3047;42.600;23.470;2023-02-12T10:37:42;94028.31;;;1.76;96.69
6038;BME280;3047;42.600;23.470;2023-02-12T10:40:17;94072.94;;;2.08;97.06
6038;BME280;3047;42.600;23.470;2023-02-12T10:42:47;94055.66;;;2.15;96.92
6038;BME280;3047;42.600;23.470;2023-02-12T10:45:19;94064.13;;;2.25;95.18
6038;BME280;3047;42.600;23.470;2023-02-12T10:47:50;94068.19;;;2.21;94.79
6038;BME280;3047;42.600;23.470;2023-02-12T10:50:24;94066.53;;;2.22;96.03
6038;BME280;3047;42.600;23.470;2023-02-12T10:52:56;94064.19;;;2.28;94.98
6038;BME280;3047;42.600;23.470;2023-02-12T10:55:29;94067.50;;;2.29;95.56
6038;BME280;3047;42.600;23.470;2023-02-12T10:57:58;94054.06;;;2.19;96.03
6038;BME280;3047;42.600;23.470;2023-02-12T11:00:29;94060.03;;;2.29;95.02
6038;BME280;3047;42.600;23.470;2023-02-12T11:03:08;94062.69;;;2.38;94.06
6038;BME280;3047;42.600;23.470;2023-02-12T11:05:44;94063.59;;;2.43;94.06
6038;BME280;3047;42.600;23.470;2023-02-12T11:08:27;94020.13;;;2.27;94.40
6038;BME280;3047;42.600;23.470;2023-02-12T11:10:54;94054.59;;;2.50;94.18
6038;BME280;3047;42.600;23.470;2023-02-12T11:13:23;94005.72;;;2.12;93.90
6038;BME280;3047;42.600;23.470;2023-02-12T11:15:53;94057.16;;;2.53;94.39
6038;BME280;3047;42.600;23.470;2023-02-12T11:18:22;94045.34;;;2.44;94.79
6038;BME280;3047;42.600;23.470;2023-02-12T11:20:52;94067.31;;;2.65;94.12
6038;BME280;3047;42.600;23.470;2023-02-12T11:23:26;94061.63;;;2.72;93.43
6038;BME280;3047;42.600;23.470;2023-02-12T11:25:56;94059.22;;;2.78;94.21
6038;BME280;3047;42.600;23.470;2023-02-12T11:28:23;94040.84;;;2.73;92.73
6038;BME280;3047;42.600;23.470;2023-02-12T11:30:54;94059.50;;;2.95;92.42
6038;BME280;3047;42.600;23.470;2023-02-12T11:33:24;94053.88;;;3.07;91.74
6038;BME280;3047;42.600;23.470;2023-02-12T11:35:52;94062.94;;;3.03;90.30
6038;BME280;3047;42.600;23.470;2023-02-12T11:38:24;94062.94;;;3.02;91.01
6038;BME280;3047;42.600;23.470;2023-02-12T11:40:56;94062.16;;;3.06;91.68
6038;BME280;3047;42.600;23.470;2023-02-12T11:43:23;94063.13;;;3.14;91.16
6038;BME280;3047;42.600;23.470;2023-02-12T11:45:53;94060.69;;;3.18;90.68
6038;BME280;3047;42.600;23.470;2023-02-12T11:48:25;94059.22;;;3.30;90.06
6038;BME280;3047;42.600;23.470;2023-02-12T11:50:55;94057.66;;;3.36;89.11
6038;BME280;3047;42.600;23.470;2023-02-12T11:53:24;94066.03;;;3.41;89.79
6038;BME280;3047;42.600;23.470;2023-02-12T11:55:56;94065.28;;;3.47;88.31
6038;BME280;3047;42.600;23.470;2023-02-12T11:58:25;94072.66;;;3.39;88.35
6038;BME280;3047;42.600;23.470;2023-02-12T12:01:00;94068.44;;;3.34;89.37
6038;BME280;3047;42.600;23.470;2023-02-12T12:03:32;94069.13;;;3.25;88.38
6038;BME280;3047;42.600;23.470;2023-02-12T12:06:20;94074.06;;;3.20;89.38
6038;BME280;3047;42.600;23.470;2023-02-12T12:08:53;94077.41;;;3.22;89.07
6038;BME280;3047;42.600;23.470;2023-02-12T12:11:25;94085.66;;;3.18;89.09
6038;BME280;3047;42.600;23.470;2023-02-12T12:13:59;94074.66;;;3.07;89.02
6038;BME280;3047;42.600;23.470;2023-02-12T12:16:33;94056.09;;;2.91;90.28
6038;BME280;3047;42.600;23.470;2023-02-12T12:19:23;94080.47;;;3.05;90.81
6038;BME280;3047;42.600;23.470;2023-02-12T12:22:13;94054.44;;;2.89;91.27
6038;BME280;3047;42.600;23.470;2023-02-12T12:24:46;94082.91;;;3.03;90.75
6038;BME280;3047;42.600;23.470;2023-02-12T12:27:22;94070.41;;;3.00;90.42
6038;BME280;3047;42.600;23.470;2023-02-12T12:30:17;94080.41;;;3.02;90.98
6038;BME280;3047;42.600;23.470;2023-02-12T12:32:51;94088.03;;;3.09;90.43
6038;BME280;3047;42.600;23.470;2023-02-12T12:35:31;94086.41;;;3.13;90.89
6038;BME280;3047;42.600;23.470;2023-02-12T12:38:06;94095.59;;;3.14;90.55
6038;BME280;3047;42.600;23.470;2023-02-12T12:40:41;94100.44;;;3.06;91.36
6038;BME280;3047;42.600;23.470;2023-02-12T12:43:25;94102.97;;;3.08;90.30
6038;BME280;3047;42.600;23.470;2023-02-12T12:49:20;94108.69;;;3.02;91.56
6038;BME280;3047;42.600;23.470;2023-02-12T12:52:11;94095.47;;;3.06;90.46
6038;BME280;3047;42.600;23.470;2023-02-12T12:54:54;94070.34;;;2.97;90.93
6038;BME280;3047;42.600;23.470;2023-02-12T12:57:36;94091.44;;;3.14;90.46
6038;BME280;3047;42.600;23.470;2023-02-12T13:00:26;94092.44;;;3.26;89.94
6038;BME280;3047;42.600;23.470;2023-02-12T13:03:24;94090.47;;;3.08;91.21
6038;BME280;3047;42.600;23.470;2023-02-12T13:06:07;94066.28;;;3.04;89.99
6038;BME280;3047;42.600;23.470;2023-02-12T13:09:06;94101.59;;;3.27;90.24
6038;BME280;3047;42.600;23.470;2023-02-12T13:11:39;94100.00;;;3.32;89.59
6038;BME280;3047;42.600;23.470;2023-02-12T13:14:23;94046.03;;;2.85;88.82
6038;BME280;3047;42.600;23.470;2023-02-12T13:16:59;94108.31;;;3.29;89.73
6038;BME280;3047;42.600;23.470;2023-02-12T13:19:39;94117.34;;;3.21;90.21
6038;BME280;3047;42.600;23.470;2023-02-12T13:22:12;94107.34;;;3.21;89.84
6038;BME280;3047;42.600;23.470;2023-02-12T13:24:46;94099.16;;;3.30;90.81
6038;BME280;3047;42.600;23.470;2023-02-12T13:27:16;94045.47;;;3.00;90.38
6038;BME280;3047;42.600;23.470;2023-02-12T13:29:48;94089.03;;;3.20;90.56
6038;BME280;3047;42.600;23.470;2023-02-12T13:32:22;94115.03;;;3.35;89.94
6038;BME280;3047;42.600;23.470;2023-02-12T13:34:51;94124.94;;;3.29;89.60
6038;BME280;3047;42.600;23.470;2023-02-12T13:37:28;94126.50;;;3.22;90.16
6038;BME280;3047;42.600;23.470;2023-02-12T13:40:03;94131.59;;;3.28;89.80
6038;BME280;3047;42.600;23.470;2023-02-12T13:42:41;94129.75;;;3.16;90.31
6038;BME280;3047;42.600;23.470;2023-02-12T13:45:26;94119.66;;;3.10;91.12
6038;BME280;3047;42.600;23.470;2023-02-12T13:48:15;94110.44;;;3.08;91.02
6038;BME280;3047;42.600;23.470;2023-02-12T13:50:50;94128.88;;;3.16;91.12
6038;BME280;3047;42.600;23.470;2023-02-12T13:53:29;94126.47;;;3.20;91.34
6038;BME280;3047;42.600;23.470;2023-02-12T13:56:06;94129.81;;;3.21;91.20